<?xml version="1.0" encoding="UTF-8" standalone="no" ?>
<gpx xmlns="http://www.topografix.com/GPX/1/1" xmlns:xsi="http://www.w3.org/2001/XMLSchema-instance" xsi:schemaLocation="http://www.topografix.com/GPX/1/1 http://www.topografix.com/GPX/1/1/gpx.xsd" version="1.1" creator="VisuGPX - https://www.visugpx.com">
  <metadata>
    <name>De Meillerie à Salvigny</name>
    <desc><![CDATA[Randonnée en Haute-Savoie]]></desc>
  </metadata>
  <trk>
    <name><![CDATA[ACTIVE LOG: 26 JUL 2015 16:03]]></name>
    <trkseg>
      <trkpt lat="46.34679" lon="6.73417">
        <ele>1783.86</ele>
        <time>2015-07-26T14:05:04Z</time>
      </trkpt>
      <trkpt lat="46.34679" lon="6.73418">
        <ele>1782.42</ele>
        <time>2015-07-26T14:06:09Z</time>
      </trkpt>
      <trkpt lat="46.34667" lon="6.73481">
        <ele>1787.23</ele>
        <time>2015-07-26T14:07:14Z</time>
      </trkpt>
      <trkpt lat="46.34661" lon="6.73545">
        <ele>1795.4</ele>
        <time>2015-07-26T14:08:19Z</time>
      </trkpt>
      <trkpt lat="46.34649" lon="6.73598">
        <ele>1805.97</ele>
        <time>2015-07-26T14:09:24Z</time>
      </trkpt>
      <trkpt lat="46.34652" lon="6.73666">
        <ele>1813.18</ele>
        <time>2015-07-26T14:10:29Z</time>
      </trkpt>
      <trkpt lat="46.34659" lon="6.73716">
        <ele>1823.76</ele>
        <time>2015-07-26T14:11:34Z</time>
      </trkpt>
      <trkpt lat="46.3467" lon="6.7375">
        <ele>1830.01</ele>
        <time>2015-07-26T14:12:39Z</time>
      </trkpt>
      <trkpt lat="46.34677" lon="6.73805">
        <ele>1832.89</ele>
        <time>2015-07-26T14:13:44Z</time>
      </trkpt>
      <trkpt lat="46.34663" lon="6.73855">
        <ele>1840.58</ele>
        <time>2015-07-26T14:14:49Z</time>
      </trkpt>
      <trkpt lat="46.34646" lon="6.73897">
        <ele>1849.71</ele>
        <time>2015-07-26T14:15:54Z</time>
      </trkpt>
      <trkpt lat="46.34651" lon="6.73914">
        <ele>1858.37</ele>
        <time>2015-07-26T14:16:59Z</time>
      </trkpt>
      <trkpt lat="46.34627" lon="6.73948">
        <ele>1867.5</ele>
        <time>2015-07-26T14:18:04Z</time>
      </trkpt>
      <trkpt lat="46.34625" lon="6.7398">
        <ele>1875.67</ele>
        <time>2015-07-26T14:19:09Z</time>
      </trkpt>
      <trkpt lat="46.34616" lon="6.74027">
        <ele>1882.88</ele>
        <time>2015-07-26T14:20:14Z</time>
      </trkpt>
      <trkpt lat="46.34622" lon="6.74055">
        <ele>1892.97</ele>
        <time>2015-07-26T14:21:19Z</time>
      </trkpt>
      <trkpt lat="46.34626" lon="6.74109">
        <ele>1900.18</ele>
        <time>2015-07-26T14:22:24Z</time>
      </trkpt>
      <trkpt lat="46.3462" lon="6.74154">
        <ele>1910.28</ele>
        <time>2015-07-26T14:23:29Z</time>
      </trkpt>
      <trkpt lat="46.34581" lon="6.74195">
        <ele>1915.08</ele>
        <time>2015-07-26T14:24:34Z</time>
      </trkpt>
      <trkpt lat="46.34581" lon="6.74246">
        <ele>1925.66</ele>
        <time>2015-07-26T14:25:39Z</time>
      </trkpt>
      <trkpt lat="46.34568" lon="6.74281">
        <ele>1931.43</ele>
        <time>2015-07-26T14:26:44Z</time>
      </trkpt>
      <trkpt lat="46.34557" lon="6.74303">
        <ele>1936.71</ele>
        <time>2015-07-26T14:27:49Z</time>
      </trkpt>
      <trkpt lat="46.34557" lon="6.74303">
        <ele>1935.75</ele>
        <time>2015-07-26T14:28:54Z</time>
      </trkpt>
      <trkpt lat="46.34562" lon="6.74333">
        <ele>1929.02</ele>
        <time>2015-07-26T14:29:59Z</time>
      </trkpt>
      <trkpt lat="46.34557" lon="6.74354">
        <ele>1920.37</ele>
        <time>2015-07-26T14:31:04Z</time>
      </trkpt>
      <trkpt lat="46.34552" lon="6.74374">
        <ele>1910.76</ele>
        <time>2015-07-26T14:32:09Z</time>
      </trkpt>
      <trkpt lat="46.34551" lon="6.74386">
        <ele>1904.51</ele>
        <time>2015-07-26T14:33:14Z</time>
      </trkpt>
      <trkpt lat="46.34545" lon="6.74412">
        <ele>1891.53</ele>
        <time>2015-07-26T14:34:19Z</time>
      </trkpt>
      <trkpt lat="46.34519" lon="6.74436">
        <ele>1877.59</ele>
        <time>2015-07-26T14:35:24Z</time>
      </trkpt>
      <trkpt lat="46.34508" lon="6.74467">
        <ele>1873.75</ele>
        <time>2015-07-26T14:36:29Z</time>
      </trkpt>
      <trkpt lat="46.34498" lon="6.74476">
        <ele>1869.42</ele>
        <time>2015-07-26T14:37:34Z</time>
      </trkpt>
      <trkpt lat="46.34474" lon="6.74514">
        <ele>1854.52</ele>
        <time>2015-07-26T14:38:39Z</time>
      </trkpt>
      <trkpt lat="46.34443" lon="6.74548">
        <ele>1842.98</ele>
        <time>2015-07-26T14:39:44Z</time>
      </trkpt>
      <trkpt lat="46.34434" lon="6.74566">
        <ele>1839.14</ele>
        <time>2015-07-26T14:40:49Z</time>
      </trkpt>
      <trkpt lat="46.34431" lon="6.74567">
        <ele>1837.22</ele>
        <time>2015-07-26T14:41:54Z</time>
      </trkpt>
      <trkpt lat="46.34428" lon="6.7458">
        <ele>1833.37</ele>
        <time>2015-07-26T14:42:59Z</time>
      </trkpt>
      <trkpt lat="46.34415" lon="6.74599">
        <ele>1827.6</ele>
        <time>2015-07-26T14:44:04Z</time>
      </trkpt>
      <trkpt lat="46.34413" lon="6.7459">
        <ele>1829.05</ele>
        <time>2015-07-26T14:45:09Z</time>
      </trkpt>
      <trkpt lat="46.34401" lon="6.74606">
        <ele>1822.32</ele>
        <time>2015-07-26T14:46:14Z</time>
      </trkpt>
      <trkpt lat="46.34377" lon="6.74621">
        <ele>1817.51</ele>
        <time>2015-07-26T14:47:19Z</time>
      </trkpt>
      <trkpt lat="46.34352" lon="6.74669">
        <ele>1817.99</ele>
        <time>2015-07-26T14:48:24Z</time>
      </trkpt>
      <trkpt lat="46.34344" lon="6.74703">
        <ele>1821.84</ele>
        <time>2015-07-26T14:49:29Z</time>
      </trkpt>
      <trkpt lat="46.34325" lon="6.74694">
        <ele>1827.12</ele>
        <time>2015-07-26T14:50:34Z</time>
      </trkpt>
      <trkpt lat="46.34309" lon="6.74698">
        <ele>1829.53</ele>
        <time>2015-07-26T14:51:39Z</time>
      </trkpt>
      <trkpt lat="46.34292" lon="6.74719">
        <ele>1832.41</ele>
        <time>2015-07-26T14:52:44Z</time>
      </trkpt>
      <trkpt lat="46.34276" lon="6.74705">
        <ele>1830.97</ele>
        <time>2015-07-26T14:53:49Z</time>
      </trkpt>
      <trkpt lat="46.34299" lon="6.74756">
        <ele>1830.49</ele>
        <time>2015-07-26T14:54:54Z</time>
      </trkpt>
      <trkpt lat="46.34295" lon="6.74784">
        <ele>1837.7</ele>
        <time>2015-07-26T14:55:59Z</time>
      </trkpt>
      <trkpt lat="46.34283" lon="6.74818">
        <ele>1847.31</ele>
        <time>2015-07-26T14:57:04Z</time>
      </trkpt>
      <trkpt lat="46.34277" lon="6.74845">
        <ele>1852.12</ele>
        <time>2015-07-26T14:58:09Z</time>
      </trkpt>
      <trkpt lat="46.34265" lon="6.7489">
        <ele>1858.37</ele>
        <time>2015-07-26T14:59:14Z</time>
      </trkpt>
      <trkpt lat="46.34229" lon="6.74873">
        <ele>1862.21</ele>
        <time>2015-07-26T15:00:19Z</time>
      </trkpt>
      <trkpt lat="46.34197" lon="6.74855">
        <ele>1870.38</ele>
        <time>2015-07-26T15:01:24Z</time>
      </trkpt>
      <trkpt lat="46.34167" lon="6.74832">
        <ele>1879.51</ele>
        <time>2015-07-26T15:02:29Z</time>
      </trkpt>
      <trkpt lat="46.34142" lon="6.74815">
        <ele>1886.72</ele>
        <time>2015-07-26T15:03:34Z</time>
      </trkpt>
      <trkpt lat="46.34115" lon="6.74804">
        <ele>1895.38</ele>
        <time>2015-07-26T15:04:39Z</time>
      </trkpt>
      <trkpt lat="46.3411" lon="6.74817">
        <ele>1902.11</ele>
        <time>2015-07-26T15:05:44Z</time>
      </trkpt>
      <trkpt lat="46.34115" lon="6.74843">
        <ele>1911.72</ele>
        <time>2015-07-26T15:06:49Z</time>
      </trkpt>
      <trkpt lat="46.3412" lon="6.7486">
        <ele>1914.12</ele>
        <time>2015-07-26T15:07:54Z</time>
      </trkpt>
      <trkpt lat="46.34126" lon="6.74909">
        <ele>1923.25</ele>
        <time>2015-07-26T15:08:59Z</time>
      </trkpt>
      <trkpt lat="46.34139" lon="6.74941">
        <ele>1929.98</ele>
        <time>2015-07-26T15:10:04Z</time>
      </trkpt>
      <trkpt lat="46.34154" lon="6.74962">
        <ele>1935.75</ele>
        <time>2015-07-26T15:11:09Z</time>
      </trkpt>
      <trkpt lat="46.34146" lon="6.74992">
        <ele>1944.4</ele>
        <time>2015-07-26T15:12:14Z</time>
      </trkpt>
      <trkpt lat="46.34106" lon="6.7498">
        <ele>1949.69</ele>
        <time>2015-07-26T15:13:19Z</time>
      </trkpt>
      <trkpt lat="46.34061" lon="6.74948">
        <ele>1953.54</ele>
        <time>2015-07-26T15:14:24Z</time>
      </trkpt>
      <trkpt lat="46.34006" lon="6.74964">
        <ele>1942</ele>
        <time>2015-07-26T15:15:29Z</time>
      </trkpt>
      <trkpt lat="46.33965" lon="6.74989">
        <ele>1926.14</ele>
        <time>2015-07-26T15:16:34Z</time>
      </trkpt>
      <trkpt lat="46.3392" lon="6.75021">
        <ele>1920.37</ele>
        <time>2015-07-26T15:17:39Z</time>
      </trkpt>
      <trkpt lat="46.33922" lon="6.75025">
        <ele>1918.45</ele>
        <time>2015-07-26T15:18:44Z</time>
      </trkpt>
      <trkpt lat="46.33934" lon="6.75056">
        <ele>1903.07</ele>
        <time>2015-07-26T15:19:49Z</time>
      </trkpt>
      <trkpt lat="46.33957" lon="6.75058">
        <ele>1892.01</ele>
        <time>2015-07-26T15:20:54Z</time>
      </trkpt>
      <trkpt lat="46.33976" lon="6.75081">
        <ele>1881.92</ele>
        <time>2015-07-26T15:21:59Z</time>
      </trkpt>
      <trkpt lat="46.33977" lon="6.75116">
        <ele>1871.34</ele>
        <time>2015-07-26T15:23:04Z</time>
      </trkpt>
      <trkpt lat="46.33972" lon="6.75168">
        <ele>1856.92</ele>
        <time>2015-07-26T15:24:09Z</time>
      </trkpt>
      <trkpt lat="46.3399" lon="6.75188">
        <ele>1852.6</ele>
        <time>2015-07-26T15:25:14Z</time>
      </trkpt>
      <trkpt lat="46.34009" lon="6.75206">
        <ele>1842.98</ele>
        <time>2015-07-26T15:26:19Z</time>
      </trkpt>
      <trkpt lat="46.34009" lon="6.75256">
        <ele>1832.41</ele>
        <time>2015-07-26T15:27:24Z</time>
      </trkpt>
      <trkpt lat="46.34021" lon="6.75324">
        <ele>1825.2</ele>
        <time>2015-07-26T15:28:29Z</time>
      </trkpt>
      <trkpt lat="46.34055" lon="6.754">
        <ele>1822.8</ele>
        <time>2015-07-26T15:29:34Z</time>
      </trkpt>
      <trkpt lat="46.34074" lon="6.75443">
        <ele>1813.18</ele>
        <time>2015-07-26T15:30:39Z</time>
      </trkpt>
      <trkpt lat="46.34085" lon="6.75474">
        <ele>1804.05</ele>
        <time>2015-07-26T15:31:44Z</time>
      </trkpt>
      <trkpt lat="46.34112" lon="6.75519">
        <ele>1792.03</ele>
        <time>2015-07-26T15:32:49Z</time>
      </trkpt>
      <trkpt lat="46.34126" lon="6.75584">
        <ele>1779.54</ele>
        <time>2015-07-26T15:33:54Z</time>
      </trkpt>
      <trkpt lat="46.3412" lon="6.75636">
        <ele>1768</ele>
        <time>2015-07-26T15:34:59Z</time>
      </trkpt>
      <trkpt lat="46.34114" lon="6.75658">
        <ele>1758.39</ele>
        <time>2015-07-26T15:36:04Z</time>
      </trkpt>
      <trkpt lat="46.34068" lon="6.75702">
        <ele>1747.33</ele>
        <time>2015-07-26T15:37:09Z</time>
      </trkpt>
      <trkpt lat="46.34039" lon="6.75716">
        <ele>1732.43</ele>
        <time>2015-07-26T15:38:14Z</time>
      </trkpt>
      <trkpt lat="46.34036" lon="6.75744">
        <ele>1722.82</ele>
        <time>2015-07-26T15:39:19Z</time>
      </trkpt>
      <trkpt lat="46.34038" lon="6.75775">
        <ele>1708.88</ele>
        <time>2015-07-26T15:40:24Z</time>
      </trkpt>
      <trkpt lat="46.34015" lon="6.75792">
        <ele>1696.86</ele>
        <time>2015-07-26T15:41:29Z</time>
      </trkpt>
      <trkpt lat="46.33986" lon="6.75807">
        <ele>1690.62</ele>
        <time>2015-07-26T15:42:34Z</time>
      </trkpt>
      <trkpt lat="46.33965" lon="6.75816">
        <ele>1684.37</ele>
        <time>2015-07-26T15:43:39Z</time>
      </trkpt>
      <trkpt lat="46.33936" lon="6.75846">
        <ele>1669.95</ele>
        <time>2015-07-26T15:44:44Z</time>
      </trkpt>
      <trkpt lat="46.33888" lon="6.75891">
        <ele>1656.97</ele>
        <time>2015-07-26T15:45:49Z</time>
      </trkpt>
      <trkpt lat="46.33832" lon="6.75916">
        <ele>1645.43</ele>
        <time>2015-07-26T15:46:54Z</time>
      </trkpt>
      <trkpt lat="46.33797" lon="6.75951">
        <ele>1633.42</ele>
        <time>2015-07-26T15:47:59Z</time>
      </trkpt>
      <trkpt lat="46.3375" lon="6.75965">
        <ele>1626.69</ele>
        <time>2015-07-26T15:49:04Z</time>
      </trkpt>
      <trkpt lat="46.33724" lon="6.76008">
        <ele>1615.15</ele>
        <time>2015-07-26T15:50:09Z</time>
      </trkpt>
      <trkpt lat="46.33703" lon="6.76058">
        <ele>1596.89</ele>
        <time>2015-07-26T15:51:14Z</time>
      </trkpt>
      <trkpt lat="46.33673" lon="6.76106">
        <ele>1594.96</ele>
        <time>2015-07-26T15:52:19Z</time>
      </trkpt>
      <trkpt lat="46.33655" lon="6.76143">
        <ele>1586.31</ele>
        <time>2015-07-26T15:53:24Z</time>
      </trkpt>
      <trkpt lat="46.33634" lon="6.76228">
        <ele>1576.22</ele>
        <time>2015-07-26T15:54:29Z</time>
      </trkpt>
      <trkpt lat="46.33609" lon="6.76302">
        <ele>1567.09</ele>
        <time>2015-07-26T15:55:34Z</time>
      </trkpt>
      <trkpt lat="46.33605" lon="6.76388">
        <ele>1560.84</ele>
        <time>2015-07-26T15:56:39Z</time>
      </trkpt>
      <trkpt lat="46.3357" lon="6.76457">
        <ele>1553.15</ele>
        <time>2015-07-26T15:57:44Z</time>
      </trkpt>
      <trkpt lat="46.33537" lon="6.7652">
        <ele>1556.03</ele>
        <time>2015-07-26T15:58:49Z</time>
      </trkpt>
      <trkpt lat="46.3348" lon="6.76566">
        <ele>1556.99</ele>
        <time>2015-07-26T15:59:54Z</time>
      </trkpt>
      <trkpt lat="46.33417" lon="6.76571">
        <ele>1556.03</ele>
        <time>2015-07-26T16:00:59Z</time>
      </trkpt>
      <trkpt lat="46.33374" lon="6.7661">
        <ele>1549.3</ele>
        <time>2015-07-26T16:02:04Z</time>
      </trkpt>
      <trkpt lat="46.33315" lon="6.76624">
        <ele>1544.5</ele>
        <time>2015-07-26T16:03:09Z</time>
      </trkpt>
      <trkpt lat="46.33263" lon="6.76634">
        <ele>1538.73</ele>
        <time>2015-07-26T16:04:14Z</time>
      </trkpt>
      <trkpt lat="46.33208" lon="6.76611">
        <ele>1529.59</ele>
        <time>2015-07-26T16:05:19Z</time>
      </trkpt>
      <trkpt lat="46.3316" lon="6.76572">
        <ele>1521.42</ele>
        <time>2015-07-26T16:06:24Z</time>
      </trkpt>
      <trkpt lat="46.33112" lon="6.76555">
        <ele>1515.66</ele>
        <time>2015-07-26T16:07:29Z</time>
      </trkpt>
      <trkpt lat="46.33076" lon="6.7656">
        <ele>1513.25</ele>
        <time>2015-07-26T16:08:34Z</time>
      </trkpt>
      <trkpt lat="46.33059" lon="6.76575">
        <ele>1512.29</ele>
        <time>2015-07-26T16:09:39Z</time>
      </trkpt>
      <trkpt lat="46.33059" lon="6.76595">
        <ele>1513.73</ele>
        <time>2015-07-26T16:10:17Z</time>
      </trkpt>
    </trkseg>
  </trk>
</gpx>